sensor_id;sensor_type;location;lat;lon;timestamp;pressure;altitude;pressure_sealevel;temperature;humidity
18697;BME280;22617;43.690;27.956;2023-05-29T00:01:50;98533.59;;;17.10;100.00
18697;BME280;22617;43.690;27.956;2023-05-29T00:06:55;98531.88;;;17.09;100.00
18697;BME280;22617;43.690;27.956;2023-05-29T00:11:59;98533.81;;;17.04;100.00
18697;BME280;22617;43.690;27.956;2023-05-29T00:17:03;98530.63;;;16.96;100.00
18697;BME280;22617;43.690;27.956;2023-05-29T00:22:08;98537.78;;;16.92;100.00
18697;BME280;22617;43.690;27.956;2023-05-29T00:27:12;98535.06;;;16.94;100.00
18697;BME280;22617;43.690;27.956;2023-05-29T00:32:16;98542.97;;;16.94;100.00
18697;BME280;22617;43.690;27.956;2023-05-29T00:37:21;98547.28;;;16.96;100.00
18697;BME280;22617;43.690;27.956;2023-05-29T00:42:25;98550.06;;;16.92;100.00
18697;BME280;22617;43.690;27.956;2023-05-29T00:47:28;98537.00;;;16.89;100.00
18697;BME280;22617;43.690;27.956;2023-05-29T00:52:34;98531.34;;;16.76;100.00
18697;BME280;22617;43.690;27.956;2023-05-29T00:57:38;98531.22;;;16.79;100.00
18697;BME280;22617;43.690;27.956;2023-05-29T01:02:43;98534.31;;;16.67;100.00
18697;BME280;22617;43.690;27.956;2023-05-29T01:07:49;98529.25;;;16.61;100.00
18697;BME280;22617;43.690;27.956;2023-05-29T01:12:57;98524.84;;;16.62;100.00
18697;BME280;22617;43.690;27.956;2023-05-29T01:18:18;98526.53;;;16.64;100.00
18697;BME280;22617;43.690;27.956;2023-05-29T01:23:52;98528.53;;;16.56;100.00
18697;BME280;22617;43.690;27.956;2023-05-29T01:29:02;98522.19;;;16.63;100.00
18697;BME280;22617;43.690;27.956;2023-05-29T01:34:07;98522.22;;;16.62;100.00
18697;BME280;22617;43.690;27.956;2023-05-29T01:39:11;98522.56;;;16.51;100.00
18697;BME280;22617;43.690;27.956;2023-05-29T01:44:17;98531.31;;;16.51;100.00
18697;BME280;22617;43.690;27.956;2023-05-29T01:49:23;98529.72;;;16.47;100.00
18697;BME280;22617;43.690;27.956;2023-05-29T01:54:27;98527.78;;;16.52;100.00
18697;BME280;22617;43.690;27.956;2023-05-29T01:59:32;98528.81;;;16.48;100.00
18697;BME280;22617;43.690;27.956;2023-05-29T02:04:37;98527.84;;;16.51;100.00
18697;BME280;22617;43.690;27.956;2023-05-29T02:09:41;98531.94;;;16.60;100.00
18697;BME280;22617;43.690;27.956;2023-05-29T02:14:46;98534.47;;;16.63;100.00
18697;BME280;22617;43.690;27.956;2023-05-29T02:19:50;98531.94;;;16.60;100.00
18697;BME280;22617;43.690;27.956;2023-05-29T02:24:54;98538.84;;;16.64;100.00
18697;BME280;22617;43.690;27.956;2023-05-29T02:30:00;98536.97;;;16.66;100.00
18697;BME280;22617;43.690;27.956;2023-05-29T02:35:05;98547.47;;;16.67;100.00
18697;BME280;22617;43.690;27.956;2023-05-29T02:40:10;98558.72;;;16.71;100.00
18697;BME280;22617;43.690;27.956;2023-05-29T02:45:15;98553.50;;;16.69;100.00
18697;BME280;22617;43.690;27.956;2023-05-29T02:50:19;98554.38;;;16.70;100.00
18697;BME280;22617;43.690;27.956;2023-05-29T02:55:23;98550.84;;;16.71;100.00
18697;BME280;22617;43.690;27.956;2023-05-29T03:00:28;98558.53;;;16.77;100.00
18697;BME280;22617;43.690;27.956;2023-05-29T03:05:33;98549.03;;;16.73;99.86
18697;BME280;22617;43.690;27.956;2023-05-29T03:10:36;98552.56;;;16.72;99.74
18697;BME280;22617;43.690;27.956;2023-05-29T03:15:41;98554.38;;;16.70;99.85
18697;BME280;22617;43.690;27.956;2023-05-29T03:20:46;98563.09;;;16.72;99.50
18697;BME280;22617;43.690;27.956;2023-05-29T03:25:50;98563.22;;;16.69;98.97
18697;BME280;22617;43.690;27.956;2023-05-29T03:30:55;98573.81;;;16.66;99.36
18697;BME280;22617;43.690;27.956;2023-05-29T03:35:59;98579.22;;;16.63;99.72
18697;BME280;22617;43.690;27.956;2023-05-29T03:41:03;98589.75;;;16.63;99.63
18697;BME280;22617;43.690;27.956;2023-05-29T03:46:09;98598.53;;;16.62;99.78
18697;BME280;22617;43.690;27.956;2023-05-29T03:51:12;98595.53;;;16.72;99.64
18697;BME280;22617;43.690;27.956;2023-05-29T03:56:16;98585.88;;;16.73;99.29
18697;BME280;22617;43.690;27.956;2023-05-29T04:01:22;98590.06;;;16.78;98.97
18697;BME280;22617;43.690;27.956;2023-05-29T04:06:26;98598.59;;;16.85;99.00
18697;BME280;22617;43.690;27.956;2023-05-29T04:11:31;98587.56;;;16.98;99.24
18697;BME280;22617;43.690;27.956;2023-05-29T04:16:37;98609.13;;;17.08;98.62
18697;BME280;22617;43.690;27.956;2023-05-29T04:21:41;98597.66;;;17.11;98.73
18697;BME280;22617;43.690;27.956;2023-05-29T04:26:45;98597.47;;;17.15;99.02
18697;BME280;22617;43.690;27.956;2023-05-29T04:31:50;98597.31;;;17.20;98.54
18697;BME280;22617;43.690;27.956;2023-05-29T04:36:55;98600.81;;;17.20;98.16
18697;BME280;22617;43.690;27.956;2023-05-29T04:42:00;98595.47;;;17.22;98.21
18697;BME280;22617;43.690;27.956;2023-05-29T04:47:06;98600.47;;;17.29;98.68
18697;BME280;22617;43.690;27.956;2023-05-29T04:52:10;98597.66;;;17.34;98.82
18697;BME280;22617;43.690;27.956;2023-05-29T04:57:14;98587.41;;;17.26;98.74
18697;BME280;22617;43.690;27.956;2023-05-29T05:02:19;98587.81;;;17.39;99.54
18697;BME280;22617;43.690;27.956;2023-05-29T05:07:22;98583.09;;;17.47;99.03
18697;BME280;22617;43.690;27.956;2023-05-29T05:12:27;98586.44;;;17.51;99.29
18697;BME280;22617;43.690;27.956;2023-05-29T05:17:32;98592.59;;;17.51;99.16
18697;BME280;22617;43.690;27.956;2023-05-29T05:22:36;98589.44;;;17.41;99.01
18697;BME280;22617;43.690;27.956;2023-05-29T05:27:40;98586.81;;;17.41;99.25
18697;BME280;22617;43.690;27.956;2023-05-29T05:32:46;98590.66;;;17.33;99.82
18697;BME280;22617;43.690;27.956;2023-05-29T05:37:50;98600.41;;;17.31;99.54
18697;BME280;22617;43.690;27.956;2023-05-29T05:42:54;98599.78;;;17.24;99.88
18697;BME280;22617;43.690;27.956;2023-05-29T05:48:12;98615.69;;;17.21;100.00
18697;BME280;22617;43.690;27.956;2023-05-29T05:53:15;98613.91;;;17.22;100.00
18697;BME280;22617;43.690;27.956;2023-05-29T05:58:20;98625.72;;;17.12;100.00
18697;BME280;22617;43.690;27.956;2023-05-29T06:03:26;98622.47;;;17.04;100.00
18697;BME280;22617;43.690;27.956;2023-05-29T06:08:36;98628.50;;;17.07;100.00
18697;BME280;22617;43.690;27.956;2023-05-29T06:13:40;98613.63;;;17.06;100.00
18697;BME280;22617;43.690;27.956;2023-05-29T06:18:54;98609.09;;;17.10;100.00
18697;BME280;22617;43.690;27.956;2023-05-29T06:23:59;98606.00;;;17.22;100.00
18697;BME280;22617;43.690;27.956;2023-05-29T06:29:03;98615.53;;;17.26;100.00
18697;BME280;22617;43.690;27.956;2023-05-29T06:34:09;98610.53;;;17.18;100.00
18697;BME280;22617;43.690;27.956;2023-05-29T06:39:14;98615.69;;;17.21;100.00
18697;BME280;22617;43.690;27.956;2023-05-29T06:44:17;98629.78;;;17.20;100.00
18697;BME280;22617;43.690;27.956;2023-05-29T06:49:24;98631.03;;;17.10;100.00
18697;BME280;22617;43.690;27.956;2023-05-29T06:54:27;98639.50;;;17.18;100.00
18697;BME280;22617;43.690;27.956;2023-05-29T06:59:31;98642.34;;;17.12;100.00
18697;BME280;22617;43.690;27.956;2023-05-29T07:04:38;98644.31;;;17.07;100.00
18697;BME280;22617;43.690;27.956;2023-05-29T07:09:41;98636.97;;;17.15;100.00
18697;BME280;22617;43.690;27.956;2023-05-29T07:14:46;98630.47;;;17.25;100.00
18697;BME280;22617;43.690;27.956;2023-05-29T07:19:52;98634.97;;;17.22;100.00
18697;BME280;22617;43.690;27.956;2023-05-29T07:24:56;98632.06;;;17.29;100.00
18697;BME280;22617;43.690;27.956;2023-05-29T07:30:02;98639.59;;;17.40;100.00
18697;BME280;22617;43.690;27.956;2023-05-29T07:35:09;98645.75;;;17.39;100.00
18697;BME280;22617;43.690;27.956;2023-05-29T07:40:12;98642.13;;;17.41;100.00
18697;BME280;22617;43.690;27.956;2023-05-29T07:45:44;98650.72;;;17.47;100.00
18697;BME280;22617;43.690;27.956;2023-05-29T07:50:49;98656.81;;;17.49;100.00
18697;BME280;22617;43.690;27.956;2023-05-29T07:55:54;98653.53;;;17.42;100.00
18697;BME280;22617;43.690;27.956;2023-05-29T08:00:58;98659.84;;;17.38;100.00
18697;BME280;22617;43.690;27.956;2023-05-29T08:06:04;98662.47;;;17.38;100.00
18697;BME280;22617;43.690;27.956;2023-05-29T08:11:08;98657.09;;;17.41;100.00
18697;BME280;22617;43.690;27.956;2023-05-29T08:16:12;98661.34;;;17.45;100.00
18697;BME280;22617;43.690;27.956;2023-05-29T08:21:20;98660.38;;;17.48;100.00
18697;BME280;22617;43.690;27.956;2023-05-29T08:26:24;98658.63;;;17.47;100.00
18697;BME280;22617;43.690;27.956;2023-05-29T08:31:27;98656.50;;;17.56;100.00
18697;BME280;22617;43.690;27.956;2023-05-29T08:36:33;98670.50;;;17.60;100.00
18697;BME280;22617;43.690;27.956;2023-05-29T08:41:41;98669.34;;;17.67;100.00
18697;BME280;22617;43.690;27.956;2023-05-29T08:46:54;98672.59;;;17.73;100.00
18697;BME280;22617;43.690;27.956;2023-05-29T08:52:02;98670.16;;;17.69;100.00
18697;BME280;22617;43.690;27.956;2023-05-29T08:57:10;98660.47;;;17.91;100.00
18697;BME280;22617;43.690;27.956;2023-05-29T09:02:14;98668.25;;;17.94;100.00
18697;BME280;22617;43.690;27.956;2023-05-29T09:07:20;98656.81;;;17.95;100.00
18697;BME280;22617;43.690;27.956;2023-05-29T09:12:24;98660.84;;;18.04;100.00
18697;BME280;22617;43.690;27.956;2023-05-29T09:17:30;98659.34;;;17.98;100.00
18697;BME280;22617;43.690;27.956;2023-05-29T09:22:36;98651.09;;;17.84;100.00
18697;BME280;22617;43.690;27.956;2023-05-29T09:27:40;98655.66;;;17.56;100.00
18697;BME280;22617;43.690;27.956;2023-05-29T09:32:43;98655.47;;;17.37;100.00
18697;BME280;22617;43.690;27.956;2023-05-29T09:37:48;98664.19;;;17.16;100.00
18697;BME280;22617;43.690;27.956;2023-05-29T09:42:52;98654.03;;;17.05;100.00
18697;BME280;22617;43.690;27.956;2023-05-29T09:47:56;98647.03;;;17.04;100.00
18697;BME280;22617;43.690;27.956;2023-05-29T09:53:01;98640.31;;;16.95;100.00
18697;BME280;22617;43.690;27.956;2023-05-29T09:58:06;98636.00;;;16.93;100.00
18697;BME280;22617;43.690;27.956;2023-05-29T10:03:10;98632.19;;;16.78;100.00
18697;BME280;22617;43.690;27.956;2023-05-29T10:08:18;98629.84;;;16.69;100.00
18697;BME280;22617;43.690;27.956;2023-05-29T10:13:22;98631.31;;;16.78;100.00
18697;BME280;22617;43.690;27.956;2023-05-29T10:18:35;98642.53;;;16.83;100.00
18697;BME280;22617;43.690;27.956;2023-05-29T10:23:44;98629.97;;;16.91;100.00
18697;BME280;22617;43.690;27.956;2023-05-29T10:28:54;98640.78;;;16.83;100.00
18697;BME280;22617;43.690;27.956;2023-05-29T10:34:13;98642.25;;;16.90;100.00
18697;BME280;22617;43.690;27.956;2023-05-29T10:39:20;98637.53;;;17.00;100.00
18697;BME280;22617;43.690;27.956;2023-05-29T10:44:39;98640.31;;;16.95;100.00
18697;BME280;22617;43.690;27.956;2023-05-29T10:49:49;98632.13;;;17.03;100.00
18697;BME280;22617;43.690;27.956;2023-05-29T10:54:55;98633.91;;;17.02;100.00
18697;BME280;22617;43.690;27.956;2023-05-29T11:00:02;98624.38;;;17.00;100.00
18697;BME280;22617;43.690;27.956;2023-05-29T11:05:19;98623.34;;;17.04;100.00
18697;BME280;22617;43.690;27.956;2023-05-29T11:10:42;98621.53;;;17.06;100.00
18697;BME280;22617;43.690;27.956;2023-05-29T11:15:47;98629.13;;;17.14;100.00
18697;BME280;22617;43.690;27.956;2023-05-29T11:20:57;98631.97;;;17.08;100.00
18697;BME280;22617;43.690;27.956;2023-05-29T11:26:03;98635.47;;;17.08;100.00
18697;BME280;22617;43.690;27.956;2023-05-29T11:31:08;98633.00;;;17.04;100.00
18697;BME280;22617;43.690;27.956;2023-05-29T11:36:12;98641.81;;;17.02;100.00
18697;BME280;22617;43.690;27.956;2023-05-29T11:41:19;98632.06;;;17.06;100.00
18697;BME280;22617;43.690;27.956;2023-05-29T11:46:23;98626.63;;;17.11;100.00
18697;BME280;22617;43.690;27.956;2023-05-29T11:51:28;98629.47;;;17.05;100.00
18697;BME280;22617;43.690;27.956;2023-05-29T11:56:33;98634.84;;;17.02;100.00
18697;BME280;22617;43.690;27.956;2023-05-29T12:01:37;98642.47;;;17.09;100.00
18697;BME280;22617;43.690;27.956;2023-05-29T12:06:41;98643.16;;;17.14;100.00
18697;BME280;22617;43.690;27.956;2023-05-29T12:11:49;98638.72;;;17.16;100.00
18697;BME280;22617;43.690;27.956;2023-05-29T12:16:53;98639.31;;;17.23;100.00
18697;BME280;22617;43.690;27.956;2023-05-29T12:21:57;98635.41;;;17.34;100.00
18697;BME280;22617;43.690;27.956;2023-05-29T12:27:05;98636.19;;;17.36;100.00
18697;BME280;22617;43.690;27.956;2023-05-29T12:32:10;98634.53;;;17.34;100.00
18697;BME280;22617;43.690;27.956;2023-05-29T12:37:14;98624.72;;;17.37;100.00
18697;BME280;22617;43.690;27.956;2023-05-29T12:42:18;98607.88;;;17.41;100.00
18697;BME280;22617;43.690;27.956;2023-05-29T12:47:23;98617.13;;;17.30;100.00
18697;BME280;22617;43.690;27.956;2023-05-29T12:52:27;98620.03;;;17.22;100.00
18697;BME280;22617;43.690;27.956;2023-05-29T12:57:31;98623.78;;;17.17;100.00
18697;BME280;22617;43.690;27.956;2023-05-29T13:02:35;98615.28;;;17.32;100.00
18697;BME280;22617;43.690;27.956;2023-05-29T13:07:39;98608.53;;;17.48;100.00
18697;BME280;22617;43.690;27.956;2023-05-29T13:12:44;98609.69;;;17.64;100.00
18697;BME280;22617;43.690;27.956;2023-05-29T13:17:48;98606.16;;;17.87;100.00
18697;BME280;22617;43.690;27.956;2023-05-29T13:22:52;98598.53;;;18.01;100.00
18697;BME280;22617;43.690;27.956;2023-05-29T13:27:58;98607.19;;;18.26;100.00
18697;BME280;22617;43.690;27.956;2023-05-29T13:33:02;98609.59;;;18.11;100.00
18697;BME280;22617;43.690;27.956;2023-05-29T13:38:06;98606.03;;;18.32;100.00
18697;BME280;22617;43.690;27.956;2023-05-29T13:43:11;98610.41;;;18.33;99.92
18697;BME280;22617;43.690;27.956;2023-05-29T13:48:15;98605.22;;;18.52;98.46
18697;BME280;22617;43.690;27.956;2023-05-29T13:53:18;98603.81;;;18.43;98.17
18697;BME280;22617;43.690;27.956;2023-05-29T13:58:23;98589.91;;;18.40;97.83
18697;BME280;22617;43.690;27.956;2023-05-29T14:03:27;98589.44;;;18.30;98.57
18697;BME280;22617;43.690;27.956;2023-05-29T14:08:31;98589.44;;;18.30;99.68
18697;BME280;22617;43.690;27.956;2023-05-29T14:13:36;98579.22;;;18.43;100.00
18697;BME280;22617;43.690;27.956;2023-05-29T14:18:40;98581.47;;;18.52;100.00
18697;BME280;22617;43.690;27.956;2023-05-29T14:23:44;98575.00;;;18.60;100.00
18697;BME280;22617;43.690;27.956;2023-05-29T14:28:49;98569.72;;;18.60;100.00
18697;BME280;22617;43.690;27.956;2023-05-29T14:34:03;98560.06;;;18.80;100.00
18697;BME280;22617;43.690;27.956;2023-05-29T14:39:07;98568.03;;;18.78;99.56
18697;BME280;22617;43.690;27.956;2023-05-29T14:44:13;98568.47;;;19.08;98.36
18697;BME280;22617;43.690;27.956;2023-05-29T14:49:16;98562.09;;;19.51;96.51
18697;BME280;22617;43.690;27.956;2023-05-29T14:54:21;98565.66;;;19.50;93.93
18697;BME280;22617;43.690;27.956;2023-05-29T14:59:26;98571.34;;;19.41;94.44
18697;BME280;22617;43.690;27.956;2023-05-29T15:04:30;98569.84;;;19.35;94.47
18697;BME280;22617;43.690;27.956;2023-05-29T15:09:33;98572.47;;;19.16;96.11
18697;BME280;22617;43.690;27.956;2023-05-29T15:14:39;98568.53;;;19.25;96.84
18697;BME280;22617;43.690;27.956;2023-05-29T15:19:43;98568.16;;;19.14;96.75
18697;BME280;22617;43.690;27.956;2023-05-29T15:24:47;98579.44;;;18.99;96.67
18697;BME280;22617;43.690;27.956;2023-05-29T15:29:52;98579.22;;;19.03;97.97
18697;BME280;22617;43.690;27.956;2023-05-29T15:34:56;98582.38;;;19.11;98.07
18697;BME280;22617;43.690;27.956;2023-05-29T15:40:00;98576.81;;;19.17;97.87
18697;BME280;22617;43.690;27.956;2023-05-29T15:45:07;98578.34;;;19.23;97.79
18697;BME280;22617;43.690;27.956;2023-05-29T15:50:11;98577.53;;;19.40;98.06
18697;BME280;22617;43.690;27.956;2023-05-29T15:55:15;98572.03;;;19.26;97.51
18697;BME280;22617;43.690;27.956;2023-05-29T16:00:20;98569.81;;;19.16;98.50
18697;BME280;22617;43.690;27.956;2023-05-29T16:05:24;98568.31;;;19.11;99.33
18697;BME280;22617;43.690;27.956;2023-05-29T16:10:28;98568.28;;;18.92;99.89
18697;BME280;22617;43.690;27.956;2023-05-29T16:15:34;98578.41;;;18.83;100.00
18697;BME280;22617;43.690;27.956;2023-05-29T16:20:37;98581.50;;;18.72;100.00
18697;BME280;22617;43.690;27.956;2023-05-29T16:25:41;98573.72;;;18.69;100.00
18697;BME280;22617;43.690;27.956;2023-05-29T16:30:46;98580.72;;;18.70;100.00
18697;BME280;22617;43.690;27.956;2023-05-29T16:35:49;98567.78;;;18.64;100.00
18697;BME280;22617;43.690;27.956;2023-05-29T16:40:53;98572.19;;;18.63;100.00
18697;BME280;22617;43.690;27.956;2023-05-29T16:45:58;98575.75;;;18.62;100.00
18697;BME280;22617;43.690;27.956;2023-05-29T16:51:02;98570.13;;;18.50;100.00
18697;BME280;22617;43.690;27.956;2023-05-29T16:56:06;98578.97;;;18.49;100.00
18697;BME280;22617;43.690;27.956;2023-05-29T17:01:11;98576.66;;;18.41;100.00
18697;BME280;22617;43.690;27.956;2023-05-29T17:06:14;98577.63;;;18.39;100.00
18697;BME280;22617;43.690;27.956;2023-05-29T17:11:18;98581.47;;;18.32;100.00
18697;BME280;22617;43.690;27.956;2023-05-29T17:16:24;98579.84;;;18.27;100.00
18697;BME280;22617;43.690;27.956;2023-05-29T17:21:28;98581.19;;;18.17;100.00
18697;BME280;22617;43.690;27.956;2023-05-29T17:26:32;98578.84;;;18.10;100.00
18697;BME280;22617;43.690;27.956;2023-05-29T17:31:37;98584.25;;;18.07;100.00
18697;BME280;22617;43.690;27.956;2023-05-29T17:36:41;98586.94;;;18.05;100.00
18697;BME280;22617;43.690;27.956;2023-05-29T17:41:44;98586.16;;;18.03;100.00
18697;BME280;22617;43.690;27.956;2023-05-29T17:46:49;98582.84;;;17.98;100.00
18697;BME280;22617;43.690;27.956;2023-05-29T17:51:53;98593.50;;;17.95;100.00
18697;BME280;22617;43.690;27.956;2023-05-29T17:56:57;98597.31;;;17.88;100.00
18697;BME280;22617;43.690;27.956;2023-05-29T18:02:02;98597.31;;;17.88;100.00
18697;BME280;22617;43.690;27.956;2023-05-29T18:07:06;98600.88;;;17.87;100.00
18697;BME280;22617;43.690;27.956;2023-05-29T18:12:10;98604.38;;;17.88;100.00
18697;BME280;22617;43.690;27.956;2023-05-29T18:17:15;98622.56;;;17.72;100.00
18697;BME280;22617;43.690;27.956;2023-05-29T18:22:19;98617.47;;;17.67;100.00
18697;BME280;22617;43.690;27.956;2023-05-29T18:27:23;98618.34;;;17.68;100.00
18697;BME280;22617;43.690;27.956;2023-05-29T18:32:32;98616.78;;;17.62;100.00
18697;BME280;22617;43.690;27.956;2023-05-29T18:37:37;98627.53;;;17.56;100.00
18697;BME280;22617;43.690;27.956;2023-05-29T18:42:41;98626.84;;;17.51;100.00
18697;BME280;22617;43.690;27.956;2023-05-29T18:47:46;98633.88;;;17.51;100.00
18697;BME280;22617;43.690;27.956;2023-05-29T18:52:49;98639.41;;;17.44;100.00
18697;BME280;22617;43.690;27.956;2023-05-29T18:57:53;98636.59;;;17.49;100.00
18697;BME280;22617;43.690;27.956;2023-05-29T19:02:58;98651.88;;;17.39;100.00
18697;BME280;22617;43.690;27.956;2023-05-29T19:08:03;98641.56;;;17.33;100.00
18697;BME280;22617;43.690;27.956;2023-05-29T19:13:10;98646.78;;;17.35;100.00
18697;BME280;22617;43.690;27.956;2023-05-29T19:18:15;98648.63;;;17.33;100.00
18697;BME280;22617;43.690;27.956;2023-05-29T19:23:18;98652.97;;;17.34;100.00
18697;BME280;22617;43.690;27.956;2023-05-29T19:28:22;98652.06;;;17.35;100.00
18697;BME280;22617;43.690;27.956;2023-05-29T19:33:27;98655.78;;;17.29;100.00
18697;BME280;22617;43.690;27.956;2023-05-29T19:38:31;98653.84;;;17.34;100.00
18697;BME280;22617;43.690;27.956;2023-05-29T19:43:35;98652.22;;;17.30;100.00
18697;BME280;22617;43.690;27.956;2023-05-29T19:48:40;98658.41;;;17.29;100.00
18697;BME280;22617;43.690;27.956;2023-05-29T19:53:44;98659.53;;;17.22;100.00
18697;BME280;22617;43.690;27.956;2023-05-29T19:58:48;98652.03;;;17.12;100.00
18697;BME280;22617;43.690;27.956;2023-05-29T20:03:54;98644.06;;;17.13;100.00
18697;BME280;22617;43.690;27.956;2023-05-29T20:08:57;98637.19;;;17.09;100.00
18697;BME280;22617;43.690;27.956;2023-05-29T20:14:01;98644.19;;;17.10;100.00
18697;BME280;22617;43.690;27.956;2023-05-29T20:19:06;98641.59;;;17.09;100.00
18697;BME280;22617;43.690;27.956;2023-05-29T20:24:10;98644.34;;;17.06;100.00
18697;BME280;22617;43.690;27.956;2023-05-29T20:29:15;98642.59;;;17.06;100.00
18697;BME280;22617;43.690;27.956;2023-05-29T20:34:20;98642.69;;;17.03;100.00
18697;BME280;22617;43.690;27.956;2023-05-29T20:39:24;98642.91;;;16.97;100.00
18697;BME280;22617;43.690;27.956;2023-05-29T20:44:30;98636.13;;;16.90;100.00
18697;BME280;22617;43.690;27.956;2023-05-29T20:49:37;98630.75;;;16.93;100.00
18697;BME280;22617;43.690;27.956;2023-05-29T20:54:40;98641.53;;;16.87;100.00
18697;BME280;22617;43.690;27.956;2023-05-29T20:59:44;98640.81;;;16.82;100.00
18697;BME280;22617;43.690;27.956;2023-05-29T21:04:49;98639.09;;;16.81;100.00
18697;BME280;22617;43.690;27.956;2023-05-29T21:09:53;98632.06;;;16.81;100.00
18697;BME280;22617;43.690;27.956;2023-05-29T21:14:56;98624.97;;;16.83;100.00
18697;BME280;22617;43.690;27.956;2023-05-29T21:20:04;98623.13;;;16.85;100.00
18697;BME280;22617;43.690;27.956;2023-05-29T21:25:09;98617.69;;;16.90;100.00
18697;BME280;22617;43.690;27.956;2023-05-29T21:30:12;98621.78;;;16.98;100.00
18697;BME280;22617;43.690;27.956;2023-05-29T21:35:18;98617.66;;;16.91;100.00
18697;BME280;22617;43.690;27.956;2023-05-29T21:40:21;98619.56;;;16.88;100.00
18697;BME280;22617;43.690;27.956;2023-05-29T21:45:25;98608.66;;;16.74;100.00
18697;BME280;22617;43.690;27.956;2023-05-29T21:50:30;98602.34;;;16.78;100.00
18697;BME280;22617;43.690;27.956;2023-05-29T21:55:34;98602.72;;;16.67;100.00
18697;BME280;22617;43.690;27.956;2023-05-29T22:00:38;98602.94;;;16.61;100.00
18697;BME280;22617;43.690;27.956;2023-05-29T22:05:43;98602.19;;;16.56;100.00
18697;BME280;22617;43.690;27.956;2023-05-29T22:10:47;98597.91;;;16.53;100.00
18697;BME280;22617;43.690;27.956;2023-05-29T22:15:50;98591.78;;;16.53;100.00
18697;BME280;22617;43.690;27.956;2023-05-29T22:20:55;98595.50;;;16.47;100.00
18697;BME280;22617;43.690;27.956;2023-05-29T22:26:00;98590.09;;;16.50;100.00
18697;BME280;22617;43.690;27.956;2023-05-29T22:31:04;98597.22;;;16.48;100.00
18697;BME280;22617;43.690;27.956;2023-05-29T22:36:09;98585.09;;;16.44;100.00
18697;BME280;22617;43.690;27.956;2023-05-29T22:41:13;98577.50;;;16.35;100.00
18697;BME280;22617;43.690;27.956;2023-05-29T22:46:16;98579.44;;;16.30;100.00
18697;BME280;22617;43.690;27.956;2023-05-29T22:51:22;98574.25;;;16.27;100.00
18697;BME280;22617;43.690;27.956;2023-05-29T22:56:27;98575.16;;;16.26;100.00
18697;BME280;22617;43.690;27.956;2023-05-29T23:01:31;98568.22;;;16.25;100.00
18697;BME280;22617;43.690;27.956;2023-05-29T23:06:37;98571.81;;;16.21;100.00
18697;BME280;22617;43.690;27.956;2023-05-29T23:11:43;98577.19;;;16.18;100.00
18697;BME280;22617;43.690;27.956;2023-05-29T23:16:46;98569.34;;;16.17;100.00
18697;BME280;22617;43.690;27.956;2023-05-29T23:21:52;98569.19;;;16.21;100.00
18697;BME280;22617;43.690;27.956;2023-05-29T23:26:56;98578.06;;;16.19;100.00
18697;BME280;22617;43.690;27.956;2023-05-29T23:31:59;98577.31;;;16.15;100.00
18697;BME280;22617;43.690;27.956;2023-05-29T23:37:05;98579.22;;;16.10;100.00
18697;BME280;22617;43.690;27.956;2023-05-29T23:42:09;98580.41;;;16.01;100.00
18697;BME280;22617;43.690;27.956;2023-05-29T23:47:12;98577.25;;;15.90;100.00
18697;BME280;22617;43.690;27.956;2023-05-29T23:52:17;98565.91;;;15.88;100.00
18697;BME280;22617;43.690;27.956;2023-05-29T23:57:21;98558.81;;;15.92;100.00
